Time;durP1;ratioP1;P1;durP2;ratioP2;P2;SDS_P1;SDS_P2;PMS_P1;PMS_P2;Temp;Humidity;BMP_temperature;BMP_pressure;BME280_temperature;BME280_humidity;BME280_pressure;Samples;Min_cycle;Max_cycle;Signal;HPM_P1;HPM_P2
2021/03/01 00:01:04;;;;;;;16.20;11.37;;;;;;;3.10;77.70;100339.77;258186;1112;23043;-75
2021/03/01 00:06:07;;;;;;;17.10;10.47;;;;;;;2.94;78.02;100340.97;258222;1110;23042;-74
2021/03/01 00:11:09;;;;;;;16.70;10.70;;;;;;;2.83;77.74;100328.31;258130;1112;23244;-76
2021/03/01 00:16:12;;;;;;;18.97;11.80;;;;;;;2.74;78.00;100335.59;258202;1110;23089;-74
2021/03/01 00:21:14;;;;;;;19.00;10.63;;;;;;;2.68;77.91;100331.91;258118;1111;26068;-75
2021/03/01 00:26:16;;;;;;;20.13;12.03;;;;;;;2.64;78.56;100329.86;258162;1111;23046;-74
2021/03/01 00:31:19;;;;;;;18.40;11.50;;;;;;;2.64;78.28;100345.74;258364;1111;23164;-75
2021/03/01 00:36:21;;;;;;;18.73;11.53;;;;;;;2.61;78.02;100346.14;258235;1111;23030;-75
2021/03/01 00:41:23;;;;;;;18.33;11.27;;;;;;;2.57;78.71;100340.41;258118;1111;23183;-75
2021/03/01 00:46:26;;;;;;;19.15;10.40;;;;;;;2.57;78.57;100324.54;258186;1112;23405;-75
2021/03/01 00:51:28;;;;;;;18.30;10.67;;;;;;;2.59;78.35;100338.41;258125;1110;27308;-76
2021/03/01 00:56:31;;;;;;;20.17;11.80;;;;;;;2.54;78.66;100357.49;258405;1112;23118;-74
2021/03/01 01:01:33;;;;;;;18.73;10.97;;;;;;;2.52;78.17;100335.72;258189;1110;23264;-75
2021/03/01 01:06:38;;;;;;;19.00;12.20;;;;;;;2.58;78.27;100338.60;258241;1111;23231;-75
2021/03/01 01:11:41;;;;;;;17.47;11.17;;;;;;;2.62;78.28;100347.78;258223;1112;23176;-75
2021/03/01 01:16:43;;;;;;;19.05;11.75;;;;;;;2.63;78.17;100341.45;258155;1111;23122;-74
2021/03/01 01:21:45;;;;;;;22.47;12.43;;;;;;;2.62;78.51;100343.30;258268;1110;23059;-74
2021/03/01 01:26:47;;;;;;;21.97;12.77;;;;;;;2.64;78.42;100335.16;258233;1111;23119;-75
2021/03/01 01:31:49;;;;;;;21.50;12.43;;;;;;;2.65;78.42;100345.54;258198;1112;23285;-75
2021/03/01 01:36:51;;;;;;;20.93;12.80;;;;;;;2.66;78.44;100351.63;258501;1112;25998;-75
2021/03/01 01:41:54;;;;;;;23.30;13.03;;;;;;;2.66;78.76;100344.53;258190;1110;23704;-75
2021/03/01 01:46:56;;;;;;;26.33;13.47;;;;;;;2.68;78.55;100357.56;258214;1112;23025;-74
2021/03/01 01:51:58;;;;;;;20.75;13.10;;;;;;;2.68;79.08;100352.27;258231;1112;23874;-75
2021/03/01 01:57:01;;;;;;;22.17;12.10;;;;;;;2.69;78.60;100352.07;258182;1112;23043;-75
2021/03/01 02:02:03;;;;;;;23.75;13.35;;;;;;;2.72;78.94;100353.51;258304;1111;23056;-75
2021/03/01 02:07:11;;;;;;;24.03;14.63;;;;;;;2.79;78.67;100354.34;258248;1111;23033;-75
2021/03/01 02:12:42;;;;;;;22.97;13.90;;;;;;;2.86;79.39;100355.19;258192;1111;23107;-75
2021/03/01 02:17:44;;;;;;;21.67;12.40;;;;;;;2.90;78.68;100360.91;258459;1112;23089;-74
2021/03/01 02:22:47;;;;;;;22.63;12.67;;;;;;;2.86;78.95;100355.19;258156;1111;23103;-75
2021/03/01 02:27:57;;;;;;;23.20;12.57;;;;;;;2.85;78.93;100350.89;258214;1112;26106;-75
2021/03/01 02:33:02;;;;;;;;;;;;;;;2.83;78.83;100352.94;258387;1112;23089;-74
2021/03/01 02:38:08;;;;;;;19.13;11.13;;;;;;;2.83;78.76;100349.48;258487;1110;21546;-75
2021/03/01 02:43:12;;;;;;;23.83;12.80;;;;;;;2.80;79.29;100348.05;258200;1112;23106;-75
2021/03/01 02:48:15;;;;;;;21.50;12.20;;;;;;;2.85;79.28;100352.73;258240;1110;23038;-74
2021/03/01 02:53:19;;;;;;;20.87;12.10;;;;;;;2.83;78.88;100349.48;258333;1111;25646;-75
2021/03/01 02:58:25;;;;;;;18.10;11.13;;;;;;;2.84;79.18;100349.28;258275;1110;23039;-75
2021/03/01 03:03:28;;;;;;;20.70;12.07;;;;;;;2.85;79.01;100344.80;258337;1110;23120;-75
2021/03/01 03:08:31;;;;;;;21.10;13.10;;;;;;;2.87;78.94;100356.02;258286;1110;27867;-74
2021/03/01 03:13:35;;;;;;;15.73;9.77;;;;;;;2.90;79.39;100351.12;258479;1111;23519;-75
2021/03/01 03:18:39;;;;;;;18.50;9.13;;;;;;;2.86;78.60;100357.83;258311;1110;23095;-75
2021/03/01 03:23:42;;;;;;;21.03;12.00;;;;;;;2.85;78.51;100364.12;258188;1112;26268;-75
2021/03/01 03:28:45;;;;;;;25.00;11.60;;;;;;;2.92;79.40;100369.45;258426;1110;23266;-74
2021/03/01 03:33:47;;;;;;;21.93;12.87;;;;;;;2.97;78.98;100372.33;258196;1112;26466;-75
2021/03/01 03:39:06;;;;;;;19.63;12.07;;;;;;;2.97;78.72;100366.23;258227;1111;23122;-76
2021/03/01 03:44:11;;;;;;;23.23;12.10;;;;;;;2.97;78.85;100358.29;258192;1111;23025;-76
2021/03/01 03:49:15;;;;;;;21.43;11.20;;;;;;;2.98;79.07;100363.38;258222;1110;23059;-75
2021/03/01 03:54:22;;;;;;;19.60;11.47;;;;;;;2.99;79.11;100367.64;258147;1111;24053;-74
2021/03/01 03:59:29;;;;;;;20.73;11.83;;;;;;;2.99;79.20;100372.13;258373;1111;23050;-74
2021/03/01 04:04:33;;;;;;;18.20;11.20;;;;;;;2.96;78.37;100367.23;258169;1112;23110;-75
2021/03/01 04:09:42;;;;;;;20.50;11.37;;;;;;;2.93;79.21;100359.70;258352;1112;23247;-75
2021/03/01 04:14:47;;;;;;;17.77;10.47;;;;;;;2.97;79.45;100371.53;258410;1111;23244;-74
2021/03/01 04:19:52;;;;;;;14.00;9.55;;;;;;;2.97;79.43;100363.59;258184;1110;27816;-75
2021/03/01 04:24:54;;;;;;;17.75;10.65;;;;;;;2.95;78.65;100373.54;258289;1110;23264;-75
2021/03/01 04:29:58;;;;;;;22.27;11.90;;;;;;;2.91;79.01;100371.30;258259;1111;23212;-75
2021/03/01 04:35:01;;;;;;;18.40;10.77;;;;;;;2.95;78.78;100376.99;258258;1111;23226;-75
2021/03/01 04:40:04;;;;;;;17.57;10.07;;;;;;;2.99;78.92;100391.47;258331;1112;23052;-74
2021/03/01 04:45:08;;;;;;;19.77;11.50;;;;;;;3.00;79.62;100382.52;258343;1111;23102;-75
2021/03/01 04:50:13;;;;;;;21.43;11.47;;;;;;;2.94;79.29;100383.33;258319;1111;23097;-74
2021/03/01 04:55:16;;;;;;;24.00;12.37;;;;;;;2.90;79.38;100382.89;258245;1111;23187;-75
2021/03/01 05:00:19;;;;;;;25.23;13.40;;;;;;;2.92;79.64;100387.98;258487;1112;26219;-74
2021/03/01 05:05:21;;;;;;;21.25;12.20;;;;;;;2.91;79.75;100389.02;258301;1111;23231;-75
2021/03/01 05:10:25;;;;;;;18.95;11.05;;;;;;;2.88;79.80;100392.87;258224;1111;23254;-75
2021/03/01 05:15:27;;;;;;;25.57;13.37;;;;;;;2.87;79.41;100393.08;258109;1111;23028;-74
2021/03/01 05:20:29;;;;;;;22.10;11.65;;;;;;;2.87;79.58;100398.37;258187;1112;23109;-75
2021/03/01 05:25:32;;;;;;;23.13;12.70;;;;;;;2.95;79.98;100402.66;258228;1111;23046;-74
2021/03/01 05:30:34;;;;;;;21.90;12.23;;;;;;;2.93;79.82;100413.45;258150;1112;26070;-74
2021/03/01 05:35:37;;;;;;;24.17;12.67;;;;;;;2.95;79.81;100421.19;257911;1111;26086;-75
2021/03/01 05:40:40;;;;;;;23.60;12.47;;;;;;;3.01;80.26;100423.87;258344;1112;23096;-74
2021/03/01 05:45:44;;;;;;;20.27;12.53;;;;;;;3.05;80.46;100429.57;258265;1111;23092;-75
2021/03/01 05:50:52;;;;;;;23.40;12.33;;;;;;;3.04;80.29;100422.66;258171;1112;23037;-74
2021/03/01 05:55:54;;;;;;;23.95;12.25;;;;;;;3.00;80.48;100429.37;258252;1112;23100;-75
2021/03/01 06:01:02;;;;;;;24.47;12.07;;;;;;;3.04;80.42;100430.61;258298;1110;23058;-75
2021/03/01 06:06:05;;;;;;;21.83;12.47;;;;;;;3.05;79.97;100440.16;258272;1112;23199;-75
2021/03/01 06:11:08;;;;;;;20.00;11.60;;;;;;;3.05;80.42;100450.75;258199;1112;23676;-74
2021/03/01 06:16:11;;;;;;;26.30;13.30;;;;;;;3.01;80.50;100468.08;258129;1111;23045;-75
2021/03/01 06:21:17;;;;;;;24.90;12.43;;;;;;;3.03;80.01;100463.39;258221;1110;23102;-75
2021/03/01 06:26:31;;;;;;;20.07;11.83;;;;;;;3.10;80.55;100471.37;258144;1112;23252;-74
2021/03/01 06:31:39;;;;;;;20.33;12.07;;;;;;;3.08;80.47;100472.38;258437;1111;23715;-73
2021/03/01 06:36:59;;;;;;;20.47;11.33;;;;;;;3.05;79.91;100467.48;258760;1111;26141;-74
2021/03/01 06:42:19;;;;;;;23.57;13.30;;;;;;;3.03;79.99;100468.69;258638;1111;23060;-75
2021/03/01 06:47:54;;;;;;;24.83;13.73;;;;;;;3.04;80.04;100472.97;258780;1111;23010;-74
2021/03/01 06:53:04;;;;;;;24.80;14.03;;;;;;;3.04;80.89;100472.97;259131;1110;24295;-73
2021/03/01 06:58:18;;;;;;;27.07;15.13;;;;;;;3.05;80.75;100470.13;259555;1111;23155;-72
2021/03/01 07:03:21;;;;;;;26.03;13.47;;;;;;;3.07;81.06;100489.27;265291;1110;22892;-74
2021/03/01 07:08:38;;;;;;;28.63;13.67;;;;;;;3.16;80.79;100486.45;265150;1110;23493;-73
2021/03/01 07:13:41;;;;;;;27.00;13.60;;;;;;;3.25;80.70;100493.23;261690;1111;23850;-73
2021/03/01 07:18:43;;;;;;;26.83;14.63;;;;;;;3.27;80.60;100491.19;258752;1110;23099;-73
2021/03/01 07:23:47;;;;;;;28.10;15.53;;;;;;;3.29;80.62;100498.92;258763;1112;23218;-73
2021/03/01 07:28:52;;;;;;;27.85;14.85;;;;;;;3.32;80.47;100506.50;258875;1111;26408;-73
2021/03/01 07:33:55;;;;;;;27.60;15.30;;;;;;;3.36;80.89;100508.55;258561;1110;23039;-73
2021/03/01 07:39:00;;;;;;;25.10;13.73;;;;;;;3.37;80.27;100509.36;258471;1110;23033;-73
2021/03/01 07:44:03;;;;;;;27.03;14.20;;;;;;;3.43;80.47;100519.18;258444;1111;23226;-73
2021/03/01 07:49:05;;;;;;;20.17;12.10;;;;;;;3.45;80.72;100533.03;258500;1112;23234;-73
2021/03/01 07:54:09;;;;;;;21.33;12.03;;;;;;;3.47;80.46;100531.02;258634;1110;26508;-75
2021/03/01 07:59:12;;;;;;;25.43;12.17;;;;;;;3.52;80.82;100546.31;258926;1112;23464;-73
2021/03/01 08:04:34;;;;;;;22.83;12.13;;;;;;;3.55;80.52;100552.05;258618;1111;23201;-74
2021/03/01 08:09:50;;;;;;;18.43;10.33;;;;;;;3.59;80.72;100549.80;259105;1110;23022;-74
2021/03/01 08:14:52;;;;;;;20.43;10.55;;;;;;;3.63;79.94;100555.53;259047;1110;23043;-76
2021/03/01 08:19:55;;;;;;;18.33;10.03;;;;;;;3.60;80.00;100557.55;258943;1111;23047;-74
2021/03/01 08:24:57;;;;;;;23.33;10.73;;;;;;;3.62;80.21;100556.55;258872;1111;23011;-73
2021/03/01 08:30:24;;;;;;;24.27;11.43;;;;;;;3.68;80.20;100561.88;258617;1111;23188;-74
2021/03/01 08:35:26;;;;;;;17.30;10.37;;;;;;;3.74;80.45;100563.72;259052;1110;23067;-74
2021/03/01 08:40:29;;;;;;;21.20;10.87;;;;;;;3.79;80.23;100560.45;258478;1110;23032;-75
2021/03/01 08:45:37;;;;;;;15.70;8.70;;;;;;;3.88;79.96;100561.92;258656;1111;23042;-75
2021/03/01 08:50:40;;;;;;;15.20;8.50;;;;;;;3.94;80.17;100571.75;258967;1111;23022;-74
2021/03/01 08:55:47;;;;;;;20.60;11.35;;;;;;;4.02;79.76;100569.92;258798;1111;23170;-73
2021/03/01 09:00:55;;;;;;;19.00;10.27;;;;;;;4.14;79.84;100584.23;258605;1112;22959;-74
2021/03/01 09:06:15;;;;;;;16.90;9.73;;;;;;;4.22;79.34;100591.97;259073;1110;26204;-73
2021/03/01 09:11:20;;;;;;;16.13;8.63;;;;;;;4.23;79.46;100590.16;258540;1110;23624;-75
2021/03/01 09:16:25;;;;;;;15.60;8.30;;;;;;;4.30;79.19;100595.48;258945;1111;26411;-74
2021/03/01 09:21:28;;;;;;;13.70;8.77;;;;;;;4.47;79.35;100593.25;258581;1111;23453;-74
2021/03/01 09:26:33;;;;;;;15.10;8.23;;;;;;;4.61;79.19;100600.99;258650;1110;23093;-74
2021/03/01 09:31:46;;;;;;;15.57;9.03;;;;;;;4.71;78.87;100589.97;258750;1110;23116;-73
2021/03/01 09:36:49;;;;;;;16.75;8.70;;;;;;;4.79;78.60;100594.27;258744;1111;23095;-73
2021/03/01 09:41:53;;;;;;;14.20;8.50;;;;;;;4.85;78.55;100590.78;258714;1111;23042;-73
2021/03/01 09:46:57;;;;;;;14.23;7.97;;;;;;;4.96;78.52;100590.15;258834;1111;23040;-73
2021/03/01 09:51:59;;;;;;;13.17;7.97;;;;;;;5.08;77.51;100592.20;259042;1111;23101;-73
2021/03/01 09:57:07;;;;;;;15.10;8.27;;;;;;;5.17;77.52;100592.79;258640;1111;23517;-73
2021/03/01 10:02:20;;;;;;;14.77;7.83;;;;;;;5.22;77.12;100593.80;258763;1110;23036;-73
2021/03/01 10:07:28;;;;;;;12.10;7.00;;;;;;;5.25;76.59;100600.55;258795;1112;23084;-74
2021/03/01 10:12:30;;;;;;;13.47;8.03;;;;;;;5.31;76.86;100603.16;258584;1110;23097;-73
2021/03/01 10:17:33;;;;;;;13.93;7.83;;;;;;;5.29;76.07;100597.25;258724;1112;23093;-74
2021/03/01 10:23:05;;;;;;;10.60;6.70;;;;;;;5.32;75.79;100601.34;258995;1110;23036;-74
2021/03/01 10:28:28;;;;;;;9.13;6.37;;;;;;;5.35;75.59;100603.57;258611;1112;23008;-73
2021/03/01 10:33:31;;;;;;;9.83;6.00;;;;;;;5.48;76.07;100602.70;260134;1111;23099;-73
2021/03/01 10:38:58;;;;;;;10.67;6.03;;;;;;;5.71;75.42;100602.23;258876;1112;23828;-75
2021/03/01 10:44:04;;;;;;;14.00;6.43;;;;;;;5.92;75.25;100611.75;259129;1110;23064;-74
2021/03/01 10:49:19;;;;;;;12.00;6.67;;;;;;;5.97;74.68;100603.12;258982;1110;23053;-73
2021/03/01 10:54:23;;;;;;;10.93;6.00;;;;;;;5.99;74.57;100601.91;258734;1111;23025;-73
2021/03/01 10:59:25;;;;;;;9.93;6.13;;;;;;;5.98;74.44;100605.59;258963;1110;23259;-74
2021/03/01 11:04:28;;;;;;;10.15;5.20;;;;;;;5.94;73.50;100604.35;258832;1111;23031;-73
2021/03/01 11:09:30;;;;;;;10.10;4.97;;;;;;;5.87;73.49;100618.73;260557;1111;23064;-73
2021/03/01 11:14:32;;;;;;;9.93;5.53;;;;;;;5.73;72.71;100615.31;259011;1112;23037;-73
2021/03/01 11:19:34;;;;;;;10.00;5.70;;;;;;;5.63;72.78;100605.92;259537;1110;23275;-73
2021/03/01 11:24:37;;;;;;;7.63;5.20;;;;;;;5.62;73.04;100617.61;265314;1111;22826;-72
2021/03/01 11:29:40;;;;;;;7.83;4.80;;;;;;;5.66;73.07;100608.16;262180;1110;23036;-73
2021/03/01 11:34:42;;;;;;;7.60;5.03;;;;;;;5.75;72.95;100605.27;258862;1111;23096;-73
2021/03/01 11:39:44;;;;;;;9.13;5.10;;;;;;;5.78;72.67;100588.91;258663;1111;23154;-73
2021/03/01 11:44:46;;;;;;;13.67;5.40;;;;;;;5.80;72.87;100594.81;258911;1110;24066;-72
2021/03/01 11:49:48;;;;;;;9.97;5.27;;;;;;;5.77;72.52;100596.05;259453;1110;23046;-74
2021/03/01 11:54:50;;;;;;;11.20;6.30;;;;;;;5.87;72.17;100592.94;259165;1110;22985;-75
2021/03/01 11:59:52;;;;;;;14.93;7.30;;;;;;;5.83;72.08;100594.39;259183;1111;23005;-74
2021/03/01 12:04:54;;;;;;;12.57;7.63;;;;;;;5.76;72.48;100585.63;259058;1111;23170;-73
2021/03/01 12:09:56;;;;;;;11.80;6.37;;;;;;;5.74;72.29;100590.36;258939;1111;23082;-74
2021/03/01 12:14:58;;;;;;;11.77;7.17;;;;;;;5.68;72.52;100592.02;258650;1111;23042;-74
2021/03/01 12:20:00;;;;;;;11.90;7.20;;;;;;;5.69;71.89;100590.16;258561;1111;23028;-73
2021/03/01 12:25:04;;;;;;;10.20;6.20;;;;;;;5.62;72.25;100591.02;258774;1110;23376;-73
2021/03/01 12:30:08;;;;;;;9.70;6.30;;;;;;;5.61;72.27;100580.57;258845;1110;23182;-73
2021/03/01 12:35:32;;;;;;;8.37;5.23;;;;;;;5.54;72.08;100579.78;258617;1111;23044;-74
2021/03/01 12:40:35;;;;;;;11.57;7.03;;;;;;;5.60;72.30;100577.11;259005;1111;26128;-73
2021/03/01 12:45:37;;;;;;;10.67;7.07;;;;;;;5.59;72.54;100570.15;258603;1112;25054;-74
2021/03/01 12:50:39;;;;;;;10.70;6.93;;;;;;;5.65;72.71;100574.64;258509;1110;26224;-73
2021/03/01 12:55:42;;;;;;;10.73;6.60;;;;;;;5.69;71.99;100571.55;258445;1110;26255;-74
2021/03/01 13:00:45;;;;;;;8.97;5.80;;;;;;;5.60;71.74;100577.11;258474;1111;23069;-73
2021/03/01 13:06:07;;;;;;;10.63;6.87;;;;;;;5.61;72.07;100578.75;258438;1110;23022;-74
2021/03/01 13:11:09;;;;;;;10.27;6.37;;;;;;;5.62;71.99;100567.09;258548;1111;23131;-74
2021/03/01 13:16:11;;;;;;;10.60;6.43;;;;;;;5.58;71.76;100557.07;258471;1111;23167;-74
2021/03/01 13:21:13;;;;;;;13.13;5.90;;;;;;;5.59;72.05;100559.52;258508;1112;23052;-75
2021/03/01 13:26:15;;;;;;;12.10;6.80;;;;;;;5.48;71.79;100557.52;258517;1112;26118;-76
2021/03/01 13:31:19;;;;;;;11.10;6.87;;;;;;;5.45;71.73;100560.61;258700;1111;23277;-75
2021/03/01 13:36:22;;;;;;;12.63;7.70;;;;;;;5.42;72.03;100558.38;258907;1110;23027;-76
2021/03/01 13:41:24;;;;;;;11.43;7.23;;;;;;;5.29;71.65;100565.36;258532;1111;23060;-76
2021/03/01 13:46:27;;;;;;;11.83;7.43;;;;;;;5.25;71.91;100558.02;258627;1111;23450;-75
2021/03/01 13:51:30;;;;;;;12.67;7.40;;;;;;;5.20;71.85;100555.97;258659;1111;23059;-74
2021/03/01 13:56:32;;;;;;;13.27;8.20;;;;;;;5.17;72.03;100561.71;258471;1111;23275;-74
2021/03/01 14:01:35;;;;;;;11.77;7.00;;;;;;;5.14;71.81;100556.82;259071;1110;23043;-76
2021/03/01 14:06:38;;;;;;;11.80;7.90;;;;;;;5.07;71.89;100553.37;258570;1112;23030;-75
2021/03/01 14:11:42;;;;;;;12.13;7.67;;;;;;;5.01;72.70;100551.53;258530;1112;22993;-75
2021/03/01 14:16:44;;;;;;;12.10;7.43;;;;;;;4.97;72.00;100554.60;258538;1110;23227;-75
2021/03/01 14:21:46;;;;;;;16.03;8.43;;;;;;;4.88;72.20;100552.37;258546;1110;23468;-74
2021/03/01 14:26:49;;;;;;;14.85;9.25;;;;;;;4.82;72.37;100551.36;258454;1110;23002;-80
2021/03/01 14:31:52;;;;;;;15.73;8.30;;;;;;;4.81;72.49;100547.06;258584;1110;23100;-75
2021/03/01 14:36:55;;;;;;;15.03;8.93;;;;;;;4.73;72.78;100541.97;258736;1111;23041;-72
2021/03/01 14:41:58;;;;;;;15.40;9.63;;;;;;;4.61;72.64;100541.79;258473;1111;23227;-73
2021/03/01 14:47:01;;;;;;;17.27;9.77;;;;;;;4.54;72.85;100557.71;258551;1112;23011;-73
2021/03/01 14:52:03;;;;;;;17.57;9.90;;;;;;;4.47;72.39;100546.28;258525;1110;23204;-72
2021/03/01 14:57:05;;;;;;;23.07;12.27;;;;;;;4.45;73.08;100551.00;258659;1111;23113;-72
2021/03/01 15:02:11;;;;;;;24.07;12.67;;;;;;;4.39;73.54;100552.63;258582;1112;23069;-71
2021/03/01 15:07:14;;;;;;;21.20;12.95;;;;;;;4.31;73.57;100557.30;259726;1110;23485;-72
2021/03/01 15:12:16;;;;;;;20.47;10.77;;;;;;;4.18;73.67;100556.25;258658;1110;23077;-73
2021/03/01 15:17:19;;;;;;;25.00;13.90;;;;;;;4.10;73.62;100541.37;258697;1110;23488;-72
2021/03/01 15:22:21;;;;;;;22.67;12.63;;;;;;;4.11;74.04;100548.31;258384;1110;23306;-71
2021/03/01 15:27:23;;;;;;;19.90;11.70;;;;;;;4.06;74.11;100541.98;258386;1110;23080;-72
2021/03/01 15:32:26;;;;;;;21.53;13.17;;;;;;;4.01;74.53;100555.83;258549;1111;23015;-72
2021/03/01 15:37:28;;;;;;;22.57;12.43;;;;;;;3.90;74.57;100543.99;258578;1110;23092;-73
2021/03/01 15:42:30;;;;;;;22.15;12.30;;;;;;;3.87;74.64;100541.72;258424;1111;23114;-72
2021/03/01 15:47:32;;;;;;;20.77;11.97;;;;;;;3.84;74.82;100544.78;258307;1110;23256;-71
2021/03/01 15:52:34;;;;;;;18.20;11.35;;;;;;;3.80;74.25;100554.14;258229;1110;23258;-73
2021/03/01 15:57:37;;;;;;;20.13;11.80;;;;;;;3.76;74.70;100551.09;258305;1110;22980;-72
2021/03/01 16:02:40;;;;;;;20.50;12.23;;;;;;;3.69;74.81;100546.77;258465;1112;23257;-72
2021/03/01 16:07:43;;;;;;;24.87;12.53;;;;;;;3.65;75.05;100561.44;258311;1111;26073;-72
2021/03/01 16:12:45;;;;;;;20.87;11.63;;;;;;;3.66;75.05;100560.44;258278;1111;23057;-72
2021/03/01 16:17:51;;;;;;;22.20;12.10;;;;;;;3.59;74.38;100561.20;258224;1111;23484;-72
2021/03/01 16:22:53;;;;;;;23.43;13.37;;;;;;;3.58;75.27;100558.76;258316;1112;26469;-72
2021/03/01 16:27:58;;;;;;;23.80;13.40;;;;;;;3.47;74.67;100564.62;258226;1112;23261;-72
2021/03/01 16:33:00;;;;;;;26.77;14.27;;;;;;;3.38;75.58;100556.03;258438;1111;24679;-71
2021/03/01 16:38:02;;;;;;;25.17;13.17;;;;;;;3.39;75.81;100562.98;258274;1112;23025;-71
2021/03/01 16:43:06;;;;;;;19.27;12.10;;;;;;;3.38;75.24;100562.14;258101;1112;23391;-72
2021/03/01 16:48:09;;;;;;;23.90;12.43;;;;;;;3.28;75.79;100548.45;258428;1112;23030;-72
2021/03/01 16:53:12;;;;;;;27.27;13.97;;;;;;;3.29;76.04;100549.26;258194;1111;23078;-72
2021/03/01 16:58:18;;;;;;;23.37;12.23;;;;;;;3.32;75.70;100560.29;258211;1111;23030;-72
2021/03/01 17:03:21;;;;;;;27.43;14.37;;;;;;;3.33;76.41;100555.80;258406;1111;26318;-71
2021/03/01 17:08:24;;;;;;;26.47;14.87;;;;;;;3.29;76.10;100554.55;258409;1111;23094;-70
2021/03/01 17:13:33;;;;;;;24.73;13.20;;;;;;;3.26;76.39;100561.09;258210;1111;23037;-72
2021/03/01 17:18:38;;;;;;;25.00;14.00;;;;;;;3.22;76.35;100554.55;258275;1112;23232;-71
2021/03/01 17:23:43;;;;;;;25.77;15.20;;;;;;;3.22;76.44;100560.65;258501;1112;24038;-72
2021/03/01 17:28:45;;;;;;;24.25;13.75;;;;;;;3.23;76.72;100558.81;258437;1111;23518;-71
2021/03/01 17:33:49;;;;;;;27.90;14.73;;;;;;;3.18;76.53;100556.75;258181;1111;23029;-72
2021/03/01 17:38:52;;;;;;;27.20;13.90;;;;;;;3.15;76.33;100556.31;258303;1112;23000;-72
2021/03/01 17:43:54;;;;;;;27.30;15.17;;;;;;;3.16;76.78;100553.50;258261;1112;23114;-72
2021/03/01 17:49:05;;;;;;;26.67;15.57;;;;;;;3.18;76.53;100551.45;258209;1112;26082;-71
2021/03/01 17:54:23;;;;;;;23.07;13.53;;;;;;;3.13;76.74;100542.47;258258;1110;23056;-72
2021/03/01 17:59:28;;;;;;;25.70;14.10;;;;;;;3.05;76.54;100549.56;258449;1111;23644;-72
2021/03/01 18:04:34;;;;;;;26.80;14.30;;;;;;;3.05;76.91;100556.67;258548;1112;26115;-71
2021/03/01 18:09:38;;;;;;;23.20;13.60;;;;;;;3.08;76.91;100561.59;258323;1110;23526;-71
2021/03/01 18:14:40;;;;;;;26.90;15.07;;;;;;;3.08;76.97;100545.70;258333;1111;23016;-72
2021/03/01 18:19:43;;;;;;;30.10;15.80;;;;;;;3.04;77.46;100547.92;258191;1112;23147;-72
2021/03/01 18:24:48;;;;;;;34.87;16.10;;;;;;;3.03;77.21;100546.27;258266;1110;24670;-72
2021/03/01 18:29:52;;;;;;;33.23;17.67;;;;;;;3.06;77.24;100540.61;258389;1111;26082;-72
2021/03/01 18:35:03;;;;;;;26.20;14.10;;;;;;;3.07;77.51;100530.83;258388;1110;23484;-72
2021/03/01 18:40:13;;;;;;;29.80;16.73;;;;;;;3.08;77.40;100538.58;258322;1110;23218;-72
2021/03/01 18:45:19;;;;;;;39.50;18.02;;;;;;;3.04;77.28;100542.63;258358;1111;23180;-71
2021/03/01 18:50:24;;;;;;;33.10;18.13;;;;;;;3.02;76.81;100543.82;258210;1111;23037;-71
2021/03/01 18:55:26;;;;;;;35.20;18.57;;;;;;;3.01;77.29;100545.66;258271;1111;23026;-72
2021/03/01 19:00:28;;;;;;;33.55;17.40;;;;;;;3.04;77.14;100541.81;258198;1112;23080;-71
2021/03/01 19:05:30;;;;;;;31.00;17.13;;;;;;;3.04;77.79;100552.41;258301;1111;23173;-72
2021/03/01 19:10:33;;;;;;;32.30;16.97;;;;;;;3.02;77.17;100554.41;258254;1111;26221;-71
2021/03/01 19:15:35;;;;;;;35.73;18.37;;;;;;;2.98;77.20;100561.95;258317;1112;22997;-72
2021/03/01 19:20:37;;;;;;;31.57;16.00;;;;;;;3.02;77.33;100559.71;258230;1111;23253;-71
2021/03/01 19:25:40;;;;;;;35.70;18.83;;;;;;;3.04;77.66;100563.00;258356;1112;23123;-74
2021/03/01 19:30:43;;;;;;;38.40;20.43;;;;;;;3.04;77.88;100560.35;258183;1111;23187;-72
2021/03/01 19:35:47;;;;;;;38.65;20.55;;;;;;;3.04;77.26;100563.00;258221;1110;23168;-72
2021/03/01 19:40:51;;;;;;;43.50;18.70;;;;;;;2.99;77.59;100552.16;258419;1112;23030;-72
2021/03/01 19:45:53;;;;;;;39.57;19.07;;;;;;;2.99;77.84;100544.22;258550;1112;27806;-71
2021/03/01 19:50:55;;;;;;;37.30;19.17;;;;;;;2.91;77.36;100553.95;258216;1111;23043;-71
2021/03/01 19:55:57;;;;;;;36.03;16.87;;;;;;;2.84;77.31;100554.91;258281;1112;23086;-73
2021/03/01 20:00:59;;;;;;;33.07;16.57;;;;;;;2.81;77.61;100561.44;258206;1111;23221;-71
2021/03/01 20:06:02;;;;;;;36.80;17.70;;;;;;;2.85;77.99;100553.91;258184;1110;23113;-73
2021/03/01 20:11:05;;;;;;;30.13;16.70;;;;;;;2.85;78.01;100557.36;258391;1111;26086;-71
2021/03/01 20:16:07;;;;;;;34.87;18.47;;;;;;;2.82;77.32;100549.00;258408;1112;23097;-71
2021/03/01 20:21:11;;;;;;;31.93;16.60;;;;;;;2.62;77.44;100540.94;258308;1112;23115;-72
2021/03/01 20:26:18;;;;;;;38.10;18.30;;;;;;;2.39;77.76;100541.95;258396;1111;23047;-71
2021/03/01 20:31:20;;;;;;;36.27;18.07;;;;;;;2.20;77.60;100548.73;258241;1111;23108;-71
2021/03/01 20:36:23;;;;;;;35.57;17.93;;;;;;;2.08;78.17;100547.59;258175;1112;23112;-72
2021/03/01 20:41:25;;;;;;;37.10;18.47;;;;;;;1.94;78.04;100544.80;258148;1112;23254;-71
2021/03/01 20:46:27;;;;;;;41.47;18.40;;;;;;;1.75;78.30;100543.61;258148;1111;23038;-73
2021/03/01 20:51:29;;;;;;;43.05;18.65;;;;;;;1.57;78.28;100530.80;258203;1110;23252;-72
2021/03/01 20:56:31;;;;;;;49.97;22.50;;;;;;;1.46;78.83;100533.92;258163;1112;27374;-72
2021/03/01 21:01:33;;;;;;;36.90;18.43;;;;;;;1.34;78.29;100541.48;258159;1110;23057;-72
2021/03/01 21:06:37;;;;;;;43.30;21.90;;;;;;;1.24;78.94;100531.20;258429;1111;23070;-71
2021/03/01 21:11:40;;;;;;;44.07;19.27;;;;;;;1.17;79.53;100533.75;258090;1111;25794;-71
2021/03/01 21:16:43;;;;;;;41.50;19.30;;;;;;;1.11;79.73;100529.22;258035;1111;23130;-71
2021/03/01 21:21:47;;;;;;;44.10;20.10;;;;;;;1.09;79.00;100533.04;258181;1111;23094;-71
2021/03/01 21:26:51;;;;;;;44.33;20.83;;;;;;;0.97;79.07;100536.13;258420;1112;23093;-71
2021/03/01 21:31:54;;;;;;;48.77;20.63;;;;;;;0.87;80.01;100542.67;258209;1112;23118;-71
2021/03/01 21:36:58;;;;;;;46.07;20.40;;;;;;;0.81;80.42;100542.41;258695;1111;23071;-71
2021/03/01 21:42:01;;;;;;;45.83;20.73;;;;;;;0.76;80.52;100536.85;258481;1111;23183;-71
2021/03/01 21:47:07;;;;;;;41.47;19.47;;;;;;;0.68;80.34;100536.93;258251;1110;23086;-71
2021/03/01 21:52:13;;;;;;;42.63;18.90;;;;;;;0.61;80.46;100541.29;258292;1111;23171;-71
2021/03/01 21:57:16;;;;;;;47.37;20.10;;;;;;;0.56;80.65;100531.28;258790;1112;23043;-71
2021/03/01 22:02:21;;;;;;;47.37;20.43;;;;;;;0.50;80.12;100529.34;258266;1111;23046;-72
2021/03/01 22:07:23;;;;;;;46.47;19.53;;;;;;;0.43;80.63;100528.42;258230;1111;23041;-72
2021/03/01 22:12:27;;;;;;;44.30;17.97;;;;;;;0.32;80.29;100535.77;258525;1111;23170;-72
2021/03/01 22:17:29;;;;;;;56.00;21.43;;;;;;;0.24;80.69;100529.73;258168;1112;23033;-71
2021/03/01 22:22:34;;;;;;;53.55;22.05;;;;;;;0.24;80.79;100530.56;258139;1112;26476;-72
2021/03/01 22:27:48;;;;;;;47.37;21.23;;;;;;;0.18;81.37;100541.80;258195;1111;26209;-71
2021/03/01 22:33:00;;;;;;;55.50;21.10;;;;;;;0.07;80.50;100543.05;258217;1111;23167;-71
2021/03/01 22:38:11;;;;;;;57.80;22.93;;;;;;;-0.01;80.97;100551.82;258396;1111;23052;-72
2021/03/01 22:43:17;;;;;;;50.27;23.30;;;;;;;-0.10;80.36;100559.95;258060;1111;23072;-71
2021/03/01 22:48:20;;;;;;;55.03;22.70;;;;;;;-0.21;80.86;100559.37;258106;1112;23046;-72
2021/03/01 22:53:24;;;;;;;62.17;23.27;;;;;;;-0.31;80.79;100555.30;258267;1111;23021;-71
2021/03/01 22:58:26;;;;;;;63.63;25.60;;;;;;;-0.29;81.64;100558.60;258060;1112;23244;-71
2021/03/01 23:03:29;;;;;;;59.20;25.70;;;;;;;-0.24;82.38;100557.09;258109;1111;23254;-71
2021/03/01 23:08:31;;;;;;;74.93;27.03;;;;;;;-0.11;82.45;100560.94;258297;1112;23122;-72